TAF Text Data
IDs:
Format:
Raw Decoded Include METAR

Data at: 0739 UTC 28 Sep 2022

METAR for:KRWF (Redwood Falls Muni, MN, US)
Text:KRWF 280653Z AUTO 00000KT 10SM CLR 04/M01 A3043 RMK AO2 SLP310 T00441011
Temperature: 4.4°C ( 40°F)
Dewpoint: -1.1°C ( 30°F) [RH = 67%]
Pressure (altimeter):30.43 inches Hg (1030.6 mb) [Sea level pressure: 1031.0 mb]
Winds:calm
Visibility:10 or more sm (16+ km)
Ceiling:at least 12,000 feet AGL
Clouds:sky clear below 12,000 feet AGL
QC Flag:automated observation with no human augmentation

TAF for:KRWF (Redwood Falls Muni, MN, US) issued at 0520 UTC 28 Sep 2022
Text:KRWF 280520Z 2806/2906 VRB03KT P6SM SKC
Forecast period:0600 to 1600 UTC 28 September 2022
Forecast type:FROM: standard forecast or significant change
Winds:variable direction winds at 3 MPH (3 knots; 1.5 m/s)
Visibility:6 or more sm (10+ km)
Ceiling:at least 12,000 feet AGL
Clouds:clear skies
Text:FM281600 16007KT P6SM FEW250
Forecast period:1600 UTC 28 September 2022 to 0600 UTC 29 September 2022
Forecast type:FROM: standard forecast or significant change
Winds:from the SSE (160 degrees) at 8 MPH (7 knots; 3.6 m/s)
Visibility:6 or more sm (10+ km)
Ceiling:at least 12,000 feet AGL
Clouds: few clouds at 25000 feet AGL